Time;durP1;ratioP1;P1;durP2;ratioP2;P2;SDS_P1;SDS_P2;PMS_P1;PMS_P2;Temp;Humidity;BMP_temperature;BMP_pressure;BME280_temperature;BME280_humidity;BME280_pressure;Samples;Min_cycle;Max_cycle;Signal;HPM_P1;HPM_P2
2023/02/04 00:01:22;;;;;;;;;;;;;;;4.86;100.00;98656.41;5028435;28;19994;-53
2023/02/04 00:03:51;;;;;;;;;;;;;;;4.92;100.00;98643.72;5030234;28;19929;-53
2023/02/04 00:06:16;;;;;;;;;;;;;;;5.02;100.00;98642.91;5028731;28;19976;-55
2023/02/04 00:08:42;;;;;;;;;;;;;;;5.05;100.00;98652.22;5027323;28;20545;-54
2023/02/04 00:11:07;;;;;;;;;;;;;;;5.09;100.00;98645.47;5027693;28;20066;-55
2023/02/04 00:13:33;;;;;;;;;;;;;;;5.07;100.00;98648.84;5030318;28;19929;-55
2023/02/04 00:15:58;;;;;;;;;;;;;;;5.13;100.00;98658.19;5028905;28;19929;-56
2023/02/04 00:18:24;;;;;;;;;;;;;;;5.13;100.00;98658.19;5028168;28;19936;-53
2023/02/04 00:20:49;;;;;;;;;;;;;;;5.23;100.00;98652.28;5030395;28;19929;-57
2023/02/04 00:23:14;;;;;;;;;;;;;;;5.31;100.00;98659.91;5029901;28;19982;-54
2023/02/04 00:25:40;;;;;;;;;;;;;;;5.43;100.00;98667.59;5030049;28;20052;-55
2023/02/04 00:28:05;;;;;;;;;;;;;;;5.41;100.00;98637.06;5027089;28;19929;-54
2023/02/04 00:30:31;;;;;;;;;;;;;;;5.51;100.00;98648.09;5027281;28;19967;-54
2023/02/04 00:32:57;;;;;;;;;;;;;;;5.48;100.00;98654.03;5029781;28;19932;-53
2023/02/04 00:35:23;;;;;;;;;;;;;;;5.50;100.00;98644.72;5028656;28;20404;-55
2023/02/04 00:37:51;;;;;;;;;;;;;;;5.45;100.00;98640.47;5011250;28;19924;-56
2023/02/04 00:40:17;;;;;;;;;;;;;;;5.38;100.00;98636.22;5029365;28;19925;-54
2023/02/04 00:42:43;;;;;;;;;;;;;;;5.55;100.00;98637.09;5029312;28;19951;-56
2023/02/04 00:45:09;;;;;;;;;;;;;;;5.55;100.00;98634.56;5027794;28;19975;-53
2023/02/04 00:47:34;;;;;;;;;;;;;;;5.52;100.00;98632.84;5025610;28;19984;-54
2023/02/04 00:50:00;;;;;;;;;;;;;;;5.57;100.00;98616.72;5026583;28;20359;-56
2023/02/04 00:52:25;;;;;;;;;;;;;;;5.57;100.00;98634.53;5026265;28;20018;-55
2023/02/04 00:54:51;;;;;;;;;;;;;;;5.68;100.00;98622.69;5025167;28;19929;-56
2023/02/04 00:57:17;;;;;;;;;;;;;;;5.70;100.00;98641.31;5028934;28;19929;-54
2023/02/04 00:59:43;;;;;;;;;;;;;;;5.32;100.00;98615.88;5030646;28;19936;-54
2023/02/04 01:02:08;;;;;;;;;;;;;;;5.20;100.00;98626.00;5027957;28;20462;-56
2023/02/04 01:04:37;;;;;;;;;;;;;;;5.10;100.00;98594.66;5028043;28;19929;-52
2023/02/04 01:07:02;;;;;;;;;;;;;;;5.10;100.00;98594.66;5029022;28;20446;-55
2023/02/04 01:09:28;;;;;;;;;;;;;;;5.23;100.00;98598.91;5027633;28;19935;-55
2023/02/04 01:11:53;;;;;;;;;;;;;;;5.12;100.00;98598.06;5028075;28;20063;-57
2023/02/04 01:14:18;;;;;;;;;;;;;;;5.01;100.00;98613.25;5028794;28;20389;-54
2023/02/04 01:16:44;;;;;;;;;;;;;;;4.83;100.00;98586.97;5027156;28;19928;-56
2023/02/04 01:19:10;;;;;;;;;;;;;;;4.78;100.00;98640.28;5028532;28;19935;-54
2023/02/04 01:21:36;;;;;;;;;;;;;;;4.60;100.00;98607.19;5028511;28;20182;-56
2023/02/04 01:24:01;;;;;;;;;;;;;;;4.59;100.00;98603.81;5028384;28;20149;-54
2023/02/04 01:26:27;;;;;;;;;;;;;;;4.55;100.00;98589.41;5027956;28;20511;-55
2023/02/04 01:28:53;;;;;;;;;;;;;;;4.54;100.00;98585.16;5028160;28;19933;-52
2023/02/04 01:31:18;;;;;;;;;;;;;;;4.48;100.00;98607.16;5023790;28;20435;-55
2023/02/04 01:33:43;;;;;;;;;;;;;;;4.50;100.00;98580.91;5026896;28;20355;-54
2023/02/04 01:36:10;;;;;;;;;;;;;;;4.53;100.00;98588.56;5031259;28;20446;-54
2023/02/04 01:38:35;;;;;;;;;;;;;;;4.54;100.00;98582.63;5028289;28;19928;-56
2023/02/04 01:41:02;;;;;;;;;;;;;;;4.59;100.00;98570.78;5029300;28;20494;-55
2023/02/04 01:43:28;;;;;;;;;;;;;;;4.55;100.00;98598.69;5028651;28;19948;-55
2023/02/04 01:45:55;;;;;;;;;;;;;;;4.59;100.00;98569.94;5027177;28;19929;-53
2023/02/04 01:48:22;;;;;;;;;;;;;;;4.72;100.00;98565.75;5028386;28;20072;-53
2023/02/04 01:50:49;;;;;;;;;;;;;;;4.77;100.00;98582.72;5029341;28;19960;-56
2023/02/04 01:53:18;;;;;;;;;;;;;;;4.65;100.00;98574.22;5028902;28;20380;-54
2023/02/04 01:55:43;;;;;;;;;;;;;;;4.72;100.00;98555.59;5028494;28;19929;-56
2023/02/04 01:58:11;;;;;;;;;;;;;;;4.81;100.00;98556.47;5029290;28;20338;-55
2023/02/04 02:00:37;;;;;;;;;;;;;;;4.74;100.00;98566.63;5031081;28;19990;-57
2023/02/04 02:03:03;;;;;;;;;;;;;;;4.64;100.00;98554.72;5027136;28;19929;-54
2023/02/04 02:05:36;;;;;;;;;;;;;;;4.75;100.00;98575.94;5029640;28;19968;-53
2023/02/04 02:08:03;;;;;;;;;;;;;;;4.78;100.00;98576.78;5036096;28;19932;-54
2023/02/04 02:10:30;;;;;;;;;;;;;;;4.80;100.00;98580.16;5029164;28;19925;-53
2023/02/04 02:12:56;;;;;;;;;;;;;;;4.75;100.00;98540.41;5025520;28;19932;-56
2023/02/04 02:15:22;;;;;;;;;;;;;;;4.78;100.00;98553.94;5023469;28;19933;-52
2023/02/04 02:17:49;;;;;;;;;;;;;;;4.80;100.00;98580.16;5026122;28;19933;-55
2023/02/04 02:20:15;;;;;;;;;;;;;;;4.79;100.00;98563.25;5027723;28;19951;-54
2023/02/04 02:22:47;;;;;;;;;;;;;;;4.72;100.00;98566.59;5026775;28;19936;-54
2023/02/04 02:25:13;;;;;;;;;;;;;;;4.76;100.00;98555.63;5036908;28;19924;-55
2023/02/04 02:27:40;;;;;;;;;;;;;;;4.86;100.00;98595.44;5029858;28;19925;-54
2023/02/04 02:30:08;;;;;;;;;;;;;;;4.90;100.00;98586.13;5029953;28;20233;-57
2023/02/04 02:32:34;;;;;;;;;;;;;;;4.84;100.00;98593.72;5028878;28;20406;-55
2023/02/04 02:35:00;;;;;;;;;;;;;;;4.95;100.00;98581.91;5049336;28;20366;-50
2023/02/04 02:37:27;;;;;;;;;;;;;;;4.91;100.00;98605.63;5037422;28;19987;-54
2023/02/04 02:39:52;;;;;;;;;;;;;;;4.86;100.00;98603.06;5027202;28;19929;-54
2023/02/04 02:42:18;;;;;;;;;;;;;;;4.86;100.00;98589.50;5025947;28;19941;-55
2023/02/04 02:44:45;;;;;;;;;;;;;;;4.82;100.00;98615.75;5032162;28;19967;-57
2023/02/04 02:47:13;;;;;;;;;;;;;;;4.65;100.00;98628.38;5034123;28;20395;-53
2023/02/04 02:49:39;;;;;;;;;;;;;;;4.49;100.00;98619.84;5042607;28;19928;-51
2023/02/04 02:52:09;;;;;;;;;;;;;;;4.45;100.00;98684.13;5032069;28;19929;-58
2023/02/04 02:54:38;;;;;;;;;;;;;;;4.58;100.00;98613.97;5065101;28;20004;-57
2023/02/04 02:57:14;;;;;;;;;;;;;;;4.49;100.00;98603.78;5039766;28;19959;-55
2023/02/04 02:59:40;;;;;;;;;;;;;;;4.45;100.00;98632.50;5032436;28;19929;-54
2023/02/04 03:02:06;;;;;;;;;;;;;;;4.38;100.00;98631.63;5031227;28;19985;-52
2023/02/04 03:04:36;;;;;;;;;;;;;;;4.47;100.00;98626.59;5032172;28;19932;-54
2023/02/04 03:07:02;;;;;;;;;;;;;;;4.42;100.00;98627.41;5039509;28;19925;-53
2023/02/04 03:09:28;;;;;;;;;;;;;;;4.48;100.00;98637.59;5033178;28;20437;-52
2023/02/04 03:11:54;;;;;;;;;;;;;;;4.48;100.00;98629.97;5050524;28;20238;-51
2023/02/04 03:14:21;;;;;;;;;;;;;;;4.45;100.00;98625.75;5014860;28;19928;-54
2023/02/04 03:16:47;;;;;;;;;;;;;;;4.40;100.00;98621.50;5032913;28;20007;-55
2023/02/04 03:19:12;;;;;;;;;;;;;;;4.34;100.00;98624.81;5030867;28;20399;-53
2023/02/04 03:21:38;;;;;;;;;;;;;;;4.31;100.00;98623.97;5027927;28;20023;-54
2023/02/04 03:24:04;;;;;;;;;;;;;;;4.49;100.00;98640.16;5033470;28;19988;-54
2023/02/04 03:26:30;;;;;;;;;;;;;;;4.44;100.00;98618.13;5033802;28;19928;-54
2023/02/04 03:28:55;;;;;;;;;;;;;;;4.46;100.00;98612.19;5033283;28;20039;-52
2023/02/04 03:31:22;;;;;;;;;;;;;;;4.51;100.00;98630.84;5031039;28;19929;-51
2023/02/04 03:33:48;;;;;;;;;;;;;;;4.60;100.00;98619.88;5030426;28;20449;-54
2023/02/04 03:36:13;;;;;;;;;;;;;;;4.52;100.00;98612.25;5034442;28;19936;-52
2023/02/04 03:38:40;;;;;;;;;;;;;;;4.49;100.00;98619.84;5030180;28;20280;-52
2023/02/04 03:41:05;;;;;;;;;;;;;;;4.42;100.00;98604.56;5029396;28;19932;-53
2023/02/04 03:43:31;;;;;;;;;;;;;;;4.60;100.00;98612.28;5028776;28;19935;-54
2023/02/04 03:45:56;;;;;;;;;;;;;;;4.53;100.00;98634.25;5029044;28;19936;-52
2023/02/04 03:48:22;;;;;;;;;;;;;;;4.15;100.00;98623.03;5062265;28;20405;-56
2023/02/04 03:50:47;;;;;;;;;;;;;;;4.11;100.00;98626.41;5029210;28;20043;-52
2023/02/04 03:53:14;;;;;;;;;;;;;;;4.04;100.00;98630.56;5029129;28;19933;-54
2023/02/04 03:55:39;;;;;;;;;;;;;;;4.20;100.00;98620.53;5030426;28;19935;-58
2023/02/04 03:58:05;;;;;;;;;;;;;;;4.44;100.00;98605.44;5028540;28;20383;-55
2023/02/04 04:00:31;;;;;;;;;;;;;;;4.45;100.00;98605.44;5028487;28;19936;-53
2023/02/04 04:02:57;;;;;;;;;;;;;;;4.54;100.00;98615.63;5029036;28;19929;-53
2023/02/04 04:05:22;;;;;;;;;;;;;;;4.60;100.00;98607.19;5032666;28;19925;-53
2023/02/04 04:07:48;;;;;;;;;;;;;;;4.66;100.00;98619.94;5033898;28;19928;-52
2023/02/04 04:10:13;;;;;;;;;;;;;;;4.69;100.00;98596.22;5047370;28;20372;-54
2023/02/04 04:12:39;;;;;;;;;;;;;;;4.83;100.00;98607.28;5030015;28;19929;-53
2023/02/04 04:15:05;;;;;;;;;;;;;;;4.81;100.00;98619.13;5029426;28;20015;-53
2023/02/04 04:17:30;;;;;;;;;;;;;;;4.80;100.00;98623.34;5028395;28;19991;-51
2023/02/04 04:19:55;;;;;;;;;;;;;;;4.82;100.00;98631.84;5030313;28;20326;-54
2023/02/04 04:22:21;;;;;;;;;;;;;;;4.71;100.00;98627.56;5032435;28;20407;-50
2023/02/04 04:24:47;;;;;;;;;;;;;;;4.73;100.00;98624.19;5037799;28;20402;-52
2023/02/04 04:27:12;;;;;;;;;;;;;;;4.82;100.00;98626.75;5027670;28;19968;-52
2023/02/04 04:29:37;;;;;;;;;;;;;;;4.73;100.00;98606.41;5027540;28;19975;-50
2023/02/04 04:32:04;;;;;;;;;;;;;;;4.55;100.00;98634.25;5063894;28;20355;-52
2023/02/04 04:34:29;;;;;;;;;;;;;;;4.41;100.00;98636.69;5030444;28;19928;-52
2023/02/04 04:36:55;;;;;;;;;;;;;;;4.38;100.00;98678.97;5033695;28;19925;-53
2023/02/04 04:39:21;;;;;;;;;;;;;;;4.33;100.00;98691.66;5030526;28;20307;-53
2023/02/04 04:41:46;;;;;;;;;;;;;;;4.07;100.00;98678.78;5030713;28;19933;-55
2023/02/04 04:44:12;;;;;;;;;;;;;;;3.98;100.00;98686.34;5030944;28;19967;-52
2023/02/04 04:46:39;;;;;;;;;;;;;;;4.11;100.00;98679.66;5030381;28;19933;-54
2023/02/04 04:49:11;;;;;;;;;;;;;;;4.31;100.00;98695.88;5030866;28;20443;-55
2023/02/04 04:51:37;;;;;;;;;;;;;;;4.55;100.00;98751.03;5029418;28;19939;-55
2023/02/04 04:54:02;;;;;;;;;;;;;;;4.55;100.00;98743.41;5032363;28;19925;-51
2023/02/04 04:56:27;;;;;;;;;;;;;;;4.65;100.00;98741.78;5029837;28;19965;-54
2023/02/04 04:58:53;;;;;;;;;;;;;;;4.58;100.00;98753.59;5039488;28;19928;-52
2023/02/04 05:01:20;;;;;;;;;;;;;;;4.72;100.00;98751.13;5030302;28;20377;-54
2023/02/04 05:03:46;;;;;;;;;;;;;;;4.57;100.00;98769.66;5029356;28;19929;-54
2023/02/04 05:06:11;;;;;;;;;;;;;;;4.44;100.00;98794.09;5038554;28;19932;-50
2023/02/04 05:08:37;;;;;;;;;;;;;;;4.40;100.00;98830.47;5031521;28;20466;-51
2023/02/04 05:11:03;;;;;;;;;;;;;;;4.31;100.00;98837.13;5030125;28;19924;-51
2023/02/04 05:13:28;;;;;;;;;;;;;;;4.23;100.00;98842.16;5030496;28;20703;-51
2023/02/04 05:15:54;;;;;;;;;;;;;;;4.13;100.00;98855.56;5030794;28;19981;-54
2023/02/04 05:18:19;;;;;;;;;;;;;;;4.09;100.00;98869.91;5030235;28;19935;-54
2023/02/04 05:20:45;;;;;;;;;;;;;;;4.19;100.00;98842.94;5029473;28;19951;-51
2023/02/04 05:23:10;;;;;;;;;;;;;;;4.11;100.00;98910.53;5058176;28;19991;-54
2023/02/04 05:25:36;;;;;;;;;;;;;;;4.14;100.00;98898.72;5028526;28;20020;-52
2023/02/04 05:28:01;;;;;;;;;;;;;;;3.87;100.00;98961.78;5030535;28;19929;-56
2023/02/04 05:30:27;;;;;;;;;;;;;;;3.20;100.00;98976.06;5027210;28;19929;-54
2023/02/04 05:32:52;;;;;;;;;;;;;;;2.90;100.00;98985.69;5026526;28;19931;-53
2023/02/04 05:35:17;;;;;;;;;;;;;;;2.94;100.00;99006.84;5033355;28;20342;-53
2023/02/04 05:37:43;;;;;;;;;;;;;;;2.95;100.00;99018.69;5034674;28;20638;-50
2023/02/04 05:40:09;;;;;;;;;;;;;;;3.02;100.00;99013.75;5028505;28;20011;-53
2023/02/04 05:42:34;;;;;;;;;;;;;;;3.07;100.00;99029.00;5029023;28;19933;-56
2023/02/04 05:45:00;;;;;;;;;;;;;;;3.10;100.00;99029.91;5029982;28;19929;-55
2023/02/04 05:47:28;;;;;;;;;;;;;;;3.07;100.00;99021.41;5029791;28;20463;-51
2023/02/04 05:49:54;;;;;;;;;;;;;;;3.13;100.00;99050.25;5061187;28;19933;-50
2023/02/04 05:52:19;;;;;;;;;;;;;;;3.12;100.00;99083.16;5028079;28;19937;-51
2023/02/04 05:54:45;;;;;;;;;;;;;;;3.11;100.00;99056.09;5025220;28;20242;-52
2023/02/04 05:57:10;;;;;;;;;;;;;;;3.07;100.00;99067.88;5026129;28;19929;-55
2023/02/04 05:59:36;;;;;;;;;;;;;;;3.06;100.00;99050.97;5028179;28;19937;-55
2023/02/04 06:02:01;;;;;;;;;;;;;;;3.09;100.00;99063.69;5027171;28;19982;-52
2023/02/04 06:04:27;;;;;;;;;;;;;;;3.14;100.00;99061.25;5027879;28;20007;-54
2023/02/04 06:06:52;;;;;;;;;;;;;;;3.12;100.00;99073.88;5028822;28;19928;-54
2023/02/04 06:09:18;;;;;;;;;;;;;;;3.13;100.00;99095.84;5028599;28;20418;-52
2023/02/04 06:11:43;;;;;;;;;;;;;;;3.20;100.00;99092.59;5029511;28;19933;-56
2023/02/04 06:14:09;;;;;;;;;;;;;;;3.16;100.00;99062.09;5024318;28;19925;-53
2023/02/04 06:16:35;;;;;;;;;;;;;;;3.12;100.00;99138.88;5026602;28;19933;-53
2023/02/04 06:19:00;;;;;;;;;;;;;;;3.11;100.00;99105.09;5027524;28;20200;-55
2023/02/04 06:21:26;;;;;;;;;;;;;;;3.02;100.00;99126.84;5027852;28;20456;-53
2023/02/04 06:23:51;;;;;;;;;;;;;;;3.07;100.00;99107.53;5033116;28;20047;-54
2023/02/04 06:26:16;;;;;;;;;;;;;;;3.08;100.00;99097.44;5053093;28;19999;-54
2023/02/04 06:28:42;;;;;;;;;;;;;;;3.08;100.00;99132.91;5029965;28;19935;-53
2023/02/04 06:31:08;;;;;;;;;;;;;;;3.06;100.00;99119.34;5029081;28;19929;-53
2023/02/04 06:33:34;;;;;;;;;;;;;;;3.00;100.00;99109.13;5029974;28;20052;-53
2023/02/04 06:36:00;;;;;;;;;;;;;;;3.02;100.00;99149.63;5028279;28;20299;-52
2023/02/04 06:38:26;;;;;;;;;;;;;;;2.97;100.00;99138.59;5032443;28;19982;-49
2023/02/04 06:40:52;;;;;;;;;;;;;;;3.00;100.00;99138.66;5031888;28;19928;-54
2023/02/04 06:43:18;;;;;;;;;;;;;;;2.97;100.00;99158.84;5031427;28;19936;-51
2023/02/04 06:45:43;;;;;;;;;;;;;;;2.93;100.00;99182.41;5033314;28;19936;-52
2023/02/04 06:48:09;;;;;;;;;;;;;;;2.99;100.00;99170.72;5031715;28;19968;-51
2023/02/04 06:50:34;;;;;;;;;;;;;;;3.01;100.00;99184.25;5032343;28;19967;-53
2023/02/04 06:53:00;;;;;;;;;;;;;;;2.98;100.00;99175.72;5030409;28;20323;-51
2023/02/04 06:55:25;;;;;;;;;;;;;;;2.92;100.00;99216.16;5033485;28;19974;-54
2023/02/04 06:57:50;;;;;;;;;;;;;;;2.91;100.00;99207.69;5030329;28;19925;-51
2023/02/04 07:00:16;;;;;;;;;;;;;;;2.95;100.00;99168.09;5038757;28;19962;-56
2023/02/04 07:02:41;;;;;;;;;;;;;;;2.89;100.00;99208.47;5030924;28;20074;-53
2023/02/04 07:05:07;;;;;;;;;;;;;;;2.90;100.00;99197.50;5029824;28;19920;-53
2023/02/04 07:07:33;;;;;;;;;;;;;;;2.88;100.00;99209.31;5031086;28;20024;-52
2023/02/04 07:09:58;;;;;;;;;;;;;;;2.90;100.00;99203.44;5038915;28;20047;-52
2023/02/04 07:12:24;;;;;;;;;;;;;;;2.90;100.00;99205.97;5032592;28;20368;-52
2023/02/04 07:14:49;;;;;;;;;;;;;;;2.88;100.00;99254.88;5031869;28;19929;-52
2023/02/04 07:17:15;;;;;;;;;;;;;;;2.83;100.00;99243.81;5030302;28;19975;-53
2023/02/04 07:19:41;;;;;;;;;;;;;;;2.80;100.00;99246.28;5031811;28;19928;-51
2023/02/04 07:22:07;;;;;;;;;;;;;;;2.81;100.00;99245.44;5032554;28;19976;-55
2023/02/04 07:24:32;;;;;;;;;;;;;;;2.80;100.00;99272.41;5033320;28;20512;-50
2023/02/04 07:26:58;;;;;;;;;;;;;;;2.80;100.00;99307.03;5030827;28;19929;-49
2023/02/04 07:29:24;;;;;;;;;;;;;;;2.71;100.00;99289.97;5027925;28;19937;-55
2023/02/04 07:31:51;;;;;;;;;;;;;;;2.76;100.00;99289.22;5036101;28;19933;-53
2023/02/04 07:34:17;;;;;;;;;;;;;;;2.58;100.00;99349.56;5034878;28;20020;-53
2023/02/04 07:36:42;;;;;;;;;;;;;;;2.59;100.00;99322.59;5031808;28;19929;-57
2023/02/04 07:39:08;;;;;;;;;;;;;;;2.58;100.00;99321.72;5029436;28;19979;-49
2023/02/04 07:41:34;;;;;;;;;;;;;;;2.43;100.00;99340.72;5027561;28;20445;-61
2023/02/04 07:43:59;;;;;;;;;;;;;;;2.38;100.00;99340.63;5027458;28;20024;-55
2023/02/04 07:46:25;;;;;;;;;;;;;;;2.35;100.00;99337.16;5027249;28;19954;-51
2023/02/04 07:48:50;;;;;;;;;;;;;;;2.19;100.00;99338.47;5025649;28;20363;-52
2023/02/04 07:51:16;;;;;;;;;;;;;;;2.21;100.00;99354.50;5028445;28;20584;-51
2023/02/04 07:53:41;;;;;;;;;;;;;;;2.31;100.00;99386.81;5031216;28;20047;-50
2023/02/04 07:56:07;;;;;;;;;;;;;;;2.33;100.00;99371.69;5028990;28;19980;-51
2023/02/04 07:58:32;;;;;;;;;;;;;;;2.10;100.00;99394.72;5029475;28;20369;-50
2023/02/04 08:00:57;;;;;;;;;;;;;;;2.20;100.00;99406.78;5029082;28;20351;-50
2023/02/04 08:03:23;;;;;;;;;;;;;;;2.24;100.00;99418.72;5031250;28;19964;-55
2023/02/04 08:05:48;;;;;;;;;;;;;;;1.88;100.00;99414.31;5032424;28;20387;-50
2023/02/04 08:08:14;;;;;;;;;;;;;;;1.83;100.00;99440.31;5026586;28;19991;-53
2023/02/04 08:10:40;;;;;;;;;;;;;;;1.84;100.00;99466.44;5030225;28;19951;-52
2023/02/04 08:13:05;;;;;;;;;;;;;;;1.59;100.00;99439.63;5030884;28;19925;-51
2023/02/04 08:15:31;;;;;;;;;;;;;;;1.64;100.00;99462.50;5025340;28;20040;-52
2023/02/04 08:17:57;;;;;;;;;;;;;;;1.58;100.00;99469.88;5025878;28;20452;-54
2023/02/04 08:20:22;;;;;;;;;;;;;;;1.46;100.00;99487.19;5028241;28;19929;-53
2023/02/04 08:22:47;;;;;;;;;;;;;;;1.38;100.00;99502.13;5026704;28;20010;-53
2023/02/04 08:25:13;;;;;;;;;;;;;;;1.40;100.00;99502.19;5024965;28;20003;-53
2023/02/04 08:27:38;;;;;;;;;;;;;;;1.55;100.00;99506.03;5026928;28;19972;-50
2023/02/04 08:30:04;;;;;;;;;;;;;;;1.59;100.00;99528.06;5029771;28;19991;-52
2023/02/04 08:32:30;;;;;;;;;;;;;;;1.69;100.00;99535.13;5029115;28;20498;-49
2023/02/04 08:34:56;;;;;;;;;;;;;;;1.69;100.00;99567.97;5027697;28;19932;-49
2023/02/04 08:37:22;;;;;;;;;;;;;;;1.74;100.00;99552.94;5029347;28;20438;-53
2023/02/04 08:39:48;;;;;;;;;;;;;;;1.76;100.00;99586.69;5028210;28;19952;-50
2023/02/04 08:42:14;;;;;;;;;;;;;;;1.76;100.00;99594.28;5017792;28;20393;-52
2023/02/04 08:44:39;;;;;;;;;;;;;;;1.69;100.00;99623.56;5023223;28;20028;-53
2023/02/04 08:47:05;;;;;;;;;;;;;;;1.71;100.00;99621.94;5027586;28;20298;-53
2023/02/04 08:49:30;;;;;;;;;;;;;;;1.72;100.00;99631.25;5028611;28;19960;-54
2023/02/04 08:51:56;;;;;;;;;;;;;;;1.71;100.00;99636.25;5029751;28;19929;-54
2023/02/04 08:54:21;;;;;;;;;;;;;;;1.71;100.00;99647.22;5026776;28;20290;-53
2023/02/04 08:56:47;;;;;;;;;;;;;;;1.74;100.00;99670.06;5026145;28;20388;-59
2023/02/04 08:59:12;;;;;;;;;;;;;;;1.78;100.00;99661.75;5026704;28;20351;-53
2023/02/04 09:01:37;;;;;;;;;;;;;;;1.80;100.00;99695.53;5029367;28;19936;-55
2023/02/04 09:04:03;;;;;;;;;;;;;;;1.83;100.00;99693.09;5029844;28;19932;-59
2023/02/04 09:06:28;;;;;;;;;;;;;;;1.78;100.00;99721.59;5027446;28;20373;-60
2023/02/04 09:08:54;;;;;;;;;;;;;;;1.81;100.00;99716.63;5029706;28;19963;-53
2023/02/04 09:11:19;;;;;;;;;;;;;;;1.72;100.00;99744.13;5028468;28;19929;-57
2023/02/04 09:13:45;;;;;;;;;;;;;;;1.75;100.00;99764.44;5028504;28;20013;-53
2023/02/04 09:16:10;;;;;;;;;;;;;;;1.82;100.00;99752.06;5028097;28;19928;-51
2023/02/04 09:18:36;;;;;;;;;;;;;;;1.81;100.00;99735.19;5028440;28;20376;-52
2023/02/04 09:21:01;;;;;;;;;;;;;;;1.90;100.00;99743.88;5026595;28;19935;-53
2023/02/04 09:23:27;;;;;;;;;;;;;;;1.77;100.00;99743.47;5060243;28;19925;-53
2023/02/04 09:25:52;;;;;;;;;;;;;;;1.77;100.00;99745.16;5057556;28;20383;-51
2023/02/04 09:28:18;;;;;;;;;;;;;;;1.63;100.00;99758.97;5026445;28;20359;-51
2023/02/04 09:30:44;;;;;;;;;;;;;;;1.66;100.00;99748.94;5027270;28;20394;-50
2023/02/04 09:33:10;;;;;;;;;;;;;;;1.67;100.00;99758.25;5026993;28;20482;-54
2023/02/04 09:35:36;;;;;;;;;;;;;;;1.76;100.00;99766.16;5028204;28;20296;-52
2023/02/04 09:38:02;;;;;;;;;;;;;;;1.86;100.00;99755.56;5027424;28;19925;-50
2023/02/04 09:40:29;;;;;;;;;;;;;;;2.00;100.00;99763.59;5027177;28;19932;-54
2023/02/04 09:42:55;;;;;;;;;;;;;;;2.02;100.00;99803.31;5027786;28;19925;-52
2023/02/04 09:45:26;;;;;;;;;;;;;;;2.03;100.00;99794.91;5028001;28;20395;-55
2023/02/04 09:47:53;;;;;;;;;;;;;;;2.07;100.00;99793.34;5035767;28;19925;-56
2023/02/04 09:50:20;;;;;;;;;;;;;;;2.00;100.00;99799.00;5027871;28;20521;-52
2023/02/04 09:52:47;;;;;;;;;;;;;;;2.24;100.00;99792.22;5029530;28;20479;-52
2023/02/04 09:55:14;;;;;;;;;;;;;;;2.07;100.00;99798.41;5033060;28;20004;-54
2023/02/04 09:57:40;;;;;;;;;;;;;;;2.06;100.00;99795.00;5031544;28;19948;-55
2023/02/04 10:00:19;;;;;;;;;;;;;;;1.98;100.00;99824.25;5032016;28;19929;-53
2023/02/04 10:02:45;;;;;;;;;;;;;;;2.00;100.00;99824.28;5028886;28;20016;-54
2023/02/04 10:05:14;;;;;;;;;;;;;;;2.11;100.00;99831.44;5031174;28;19935;-53
2023/02/04 10:07:40;;;;;;;;;;;;;;;2.21;100.00;99838.50;5032360;28;20027;-55
2023/02/04 10:10:05;;;;;;;;;;;;;;;2.26;100.00;99826.00;5030426;28;19925;-54
2023/02/04 10:12:31;;;;;;;;;;;;;;;2.09;100.00;99834.72;5030947;28;20023;-54
2023/02/04 10:14:59;;;;;;;;;;;;;;;2.22;100.00;99834.31;5031339;28;19928;-53
2023/02/04 10:17:24;;;;;;;;;;;;;;;2.55;100.00;99837.94;5030069;28;20276;-52
2023/02/04 10:19:50;;;;;;;;;;;;;;;2.80;100.00;99834.50;5028758;28;19929;-53
2023/02/04 10:22:18;;;;;;;;;;;;;;;3.01;100.00;99827.56;5030294;28;19936;-53
2023/02/04 10:24:44;;;;;;;;;;;;;;;2.79;99.83;99835.34;5036071;28;20133;-51
2023/02/04 10:27:10;;;;;;;;;;;;;;;3.06;99.01;99833.63;5029804;28;20054;-55
2023/02/04 10:29:36;;;;;;;;;;;;;;;3.13;99.90;99832.16;5027898;28;19964;-54
2023/02/04 10:32:02;;;;;;;;;;;;;;;2.92;100.00;99855.16;5030147;28;20022;-53
2023/02/04 10:34:38;;;;;;;;;;;;;;;2.72;100.00;99871.38;5030476;28;19936;-52
2023/02/04 10:37:19;;;;;;;;;;;;;;;2.56;100.00;99849.78;5031234;28;20447;-55
2023/02/04 10:39:44;;;;;;;;;;;;;;;2.55;100.00;99855.66;5030047;28;19986;-59
2023/02/04 10:42:26;;;;;;;;;;;;;;;2.67;100.00;99857.75;5032104;28;20035;-53
2023/02/04 10:44:51;;;;;;;;;;;;;;;2.67;100.00;99856.03;5030249;28;19971;-54
2023/02/04 10:47:18;;;;;;;;;;;;;;;2.73;100.00;99856.25;5028742;28;20414;-52
2023/02/04 10:49:59;;;;;;;;;;;;;;;2.68;100.00;99867.03;5029520;28;20241;-54
2023/02/04 10:52:44;;;;;;;;;;;;;;;2.75;100.00;99858.84;5028800;28;19929;-54
2023/02/04 10:55:13;;;;;;;;;;;;;;;2.64;100.00;99863.56;5027751;28;19964;-57
2023/02/04 10:57:39;;;;;;;;;;;;;;;2.36;100.00;99867.66;5029729;28;19925;-54
2023/02/04 11:00:10;;;;;;;;;;;;;;;2.32;100.00;99860.78;5029946;28;19928;-53
2023/02/04 11:02:38;;;;;;;;;;;;;;;2.44;100.00;99877.25;5030043;28;19929;-52
2023/02/04 11:05:09;;;;;;;;;;;;;;;2.26;100.00;99891.78;5028443;28;20043;-54
2023/02/04 11:07:34;;;;;;;;;;;;;;;2.08;100.00;99893.72;5062396;28;20494;-51
2023/02/04 11:10:00;;;;;;;;;;;;;;;1.79;100.00;99913.75;5029241;28;20071;-54
2023/02/04 11:12:40;;;;;;;;;;;;;;;1.35;100.00;99906.19;5028038;28;20012;-54
2023/02/04 11:15:06;;;;;;;;;;;;;;;1.27;100.00;99913.47;5029955;28;20007;-52
2023/02/04 11:17:34;;;;;;;;;;;;;;;1.45;100.00;99925.94;5026555;28;20005;-54
2023/02/04 11:20:12;;;;;;;;;;;;;;;1.43;100.00;99931.75;5029006;28;19963;-54
2023/02/04 11:22:42;;;;;;;;;;;;;;;1.64;100.00;99905.63;5030139;28;19947;-53
2023/02/04 11:25:26;;;;;;;;;;;;;;;1.67;100.00;99909.91;5030631;28;19921;-57
2023/02/04 11:27:52;;;;;;;;;;;;;;;1.68;100.00;99922.63;5029097;28;19924;-52
2023/02/04 11:30:21;;;;;;;;;;;;;;;1.68;100.00;99917.56;5027076;28;19933;-51
2023/02/04 11:33:01;;;;;;;;;;;;;;;1.91;100.00;99925.13;5030256;28;19925;-55
2023/02/04 11:35:27;;;;;;;;;;;;;;;2.17;100.00;99924.34;5028638;28;19925;-56
2023/02/04 11:37:53;;;;;;;;;;;;;;;2.36;100.00;99914.06;5037758;28;19936;-53
2023/02/04 11:40:21;;;;;;;;;;;;;;;2.66;100.00;99920.16;5033724;28;19940;-57
2023/02/04 11:42:47;;;;;;;;;;;;;;;2.66;100.00;99925.22;5034790;28;19921;-54
2023/02/04 11:45:20;;;;;;;;;;;;;;;2.58;100.00;99910.59;5032741;28;20206;-54
2023/02/04 11:47:45;;;;;;;;;;;;;;;2.27;100.00;99916.28;5031110;28;19924;-52
2023/02/04 11:50:23;;;;;;;;;;;;;;;2.28;100.00;99933.19;5030827;28;20744;-53
2023/02/04 11:52:52;;;;;;;;;;;;;;;2.20;100.00;99944.72;5031675;28;19924;-56
2023/02/04 11:55:18;;;;;;;;;;;;;;;2.07;100.00;99923.19;5030538;28;20051;-52
2023/02/04 11:57:44;;;;;;;;;;;;;;;1.88;100.00;99956.19;5026485;28;19998;-53
2023/02/04 12:00:17;;;;;;;;;;;;;;;1.80;100.00;99955.06;5029083;28;20493;-55
2023/02/04 12:02:49;;;;;;;;;;;;;;;1.92;100.00;99958.03;5029386;28;19936;-54
2023/02/04 12:05:16;;;;;;;;;;;;;;;2.03;100.00;99940.72;5029712;28;20588;-53
2023/02/04 12:07:42;;;;;;;;;;;;;;;2.24;100.00;99955.00;5029352;28;19925;-56
2023/02/04 12:10:17;;;;;;;;;;;;;;;2.37;99.50;99950.38;5028014;28;20001;-56
2023/02/04 12:12:44;;;;;;;;;;;;;;;2.43;100.00;99958.16;5027023;28;19925;-56
2023/02/04 12:15:13;;;;;;;;;;;;;;;2.44;99.88;99959.88;5027157;28;19925;-55
2023/02/04 12:17:39;;;;;;;;;;;;;;;2.39;96.30;99966.44;5028702;28;19925;-56
2023/02/04 12:20:04;;;;;;;;;;;;;;;2.56;97.43;99972.97;5025517;28;19929;-57
2023/02/04 12:22:30;;;;;;;;;;;;;;;2.65;93.42;99973.28;5025769;28;19929;-58
2023/02/04 12:24:55;;;;;;;;;;;;;;;2.66;90.38;99965.75;5029095;28;19925;-57
2023/02/04 12:27:21;;;;;;;;;;;;;;;2.74;90.64;99969.38;5028384;28;19932;-59
2023/02/04 12:29:48;;;;;;;;;;;;;;;2.85;90.95;99972.25;5028860;28;19986;-59
2023/02/04 12:32:13;;;;;;;;;;;;;;;2.85;92.33;99973.94;5029177;28;20008;-58
2023/02/04 12:34:39;;;;;;;;;;;;;;;2.71;90.17;99951.56;5018880;28;19929;-58
2023/02/04 12:37:05;;;;;;;;;;;;;;;2.54;87.10;99972.91;5026998;28;20030;-62
2023/02/04 12:39:30;;;;;;;;;;;;;;;2.42;87.07;99980.06;5025992;28;19933;-57
2023/02/04 12:41:56;;;;;;;;;;;;;;;2.33;85.46;99987.34;5027249;28;20320;-59
2023/02/04 12:44:21;;;;;;;;;;;;;;;2.39;84.87;99977.44;5028449;28;19960;-55